This is the latest recevied weather packets stored in our database for station/object N9WHM. If no packets are shown the sender has not sent any weather packets the latest 10 day(s).
| Time | Temp. | Humidity | Pressure | Rain* | Wind** | Luminosity | Snow |
|---|---|---|---|---|---|---|---|
| 1777775289 | 14.44° C | 37% | 1012.2 hPa | 0 mm | - | 0 W/m² | - |
| 1777774988 | 14.44° C | 36% | 1012.4 hPa | 0 mm | - | 0 W/m² | - |
| 1777774685 | 14.44° C | 37% | 1012.3 hPa | 0 mm | - | 0 W/m² | - |
| 1777774381 | 15° C | 36% | 1012.2 hPa | 0 mm | - | 0 W/m² | - |
| 1777774079 | 15° C | 35% | 1012.2 hPa | 0 mm | - | 0 W/m² | - |
| 1777773777 | 15° C | 34% | 1012.3 hPa | 0 mm | - | 0 W/m² | - |
| 1777773472 | 15.56° C | 34% | 1012.4 hPa | 0 mm | - | 0 W/m² | - |
| 1777773169 | 15.56° C | 33% | 1012.4 hPa | 0 mm | - | 0 W/m² | - |
| 1777772865 | 16.11° C | 33% | 1012.6 hPa | 0 mm | - | 0 W/m² | - |
| 1777772564 | 16.11° C | 33% | 1012.6 hPa | 0 mm | - | 0 W/m² | - |
| 1777772260 | 16.67° C | 33% | 1012.6 hPa | 0 mm | - | 0 W/m² | - |
| 1777771958 | 16.67° C | 32% | 1012.7 hPa | 0 mm | - | 1 W/m² | - |
| 1777771655 | 17.22° C | 32% | 1012.6 hPa | 0 mm | - | 2 W/m² | - |
| 1777771352 | 17.22° C | 32% | 1012.6 hPa | 0 mm | - | 3 W/m² | - |
| 1777771049 | 17.78° C | 31% | 1012.8 hPa | 0 mm | - | 5 W/m² | - |
| 1777770746 | 17.78° C | 31% | 1013 hPa | 0 mm | - | 8 W/m² | - |
| 1777770442 | 18.33° C | 30% | 1013 hPa | 0 mm | - | 11 W/m² | - |
| 1777770139 | 18.33° C | 30% | 1012.8 hPa | 0 mm | - | 15 W/m² | - |
| 1777769837 | 18.89° C | 30% | 1013 hPa | 0 mm | - | 19 W/m² | - |
| 1777769534 | 18.89° C | 29% | 1013 hPa | 0 mm | - | 20 W/m² | - |
| 1777769230 | 19.44° C | 28% | 1013 hPa | 0 mm | - | 25 W/m² | - |
| 1777768929 | 19.44° C | 27% | 1013.2 hPa | 0 mm | - | 34 W/m² | - |
| 1777768625 | 20° C | 27% | 1013.4 hPa | 0 mm | - | 30 W/m² | - |
| 1777768322 | 19.44° C | 27% | 1013.5 hPa | 0 mm | - | 49 W/m² | - |
| 1777768018 | 20° C | 26% | 1013.4 hPa | 0 mm | - | 41 W/m² | - |
* Rain latest hour (hover to see other rain measurements)
** Current wind speed in m/s (hover to see current wind gust speed)